sensor_id;sensor_type;location;lat;lon;timestamp;P1;durP1;ratioP1;P2;durP2;ratioP2
56911;SDS011;42800;53.928;27.662;2023-08-12T00:01:23;10.98;;;7.25;;
56911;SDS011;42800;53.928;27.662;2023-08-12T00:03:50;10.02;;;7.43;;
56911;SDS011;42800;53.928;27.662;2023-08-12T00:06:16;11.77;;;7.10;;
56911;SDS011;42800;53.928;27.662;2023-08-12T00:08:41;11.88;;;7.10;;
56911;SDS011;42800;53.928;27.662;2023-08-12T00:11:08;8.20;;;6.40;;
56911;SDS011;42800;53.928;27.662;2023-08-12T00:13:34;15.25;;;7.50;;
56911;SDS011;42800;53.928;27.662;2023-08-12T00:16:00;9.38;;;6.57;;
56911;SDS011;42800;53.928;27.662;2023-08-12T00:18:26;13.70;;;7.28;;
56911;SDS011;42800;53.928;27.662;2023-08-12T00:20:52;9.98;;;6.88;;
56911;SDS011;42800;53.928;27.662;2023-08-12T00:23:18;14.60;;;7.43;;
56911;SDS011;42800;53.928;27.662;2023-08-12T00:25:44;10.13;;;7.57;;
56911;SDS011;42800;53.928;27.662;2023-08-12T00:28:11;13.73;;;7.28;;
56911;SDS011;42800;53.928;27.662;2023-08-12T00:30:37;11.00;;;7.43;;
56911;SDS011;42800;53.928;27.662;2023-08-12T00:33:03;9.23;;;7.22;;
56911;SDS011;42800;53.928;27.662;2023-08-12T00:35:29;9.40;;;7.15;;
56911;SDS011;42800;53.928;27.662;2023-08-12T00:37:55;11.07;;;7.38;;
56911;SDS011;42800;53.928;27.662;2023-08-12T00:40:21;11.95;;;7.60;;
56911;SDS011;42800;53.928;27.662;2023-08-12T00:42:47;10.20;;;7.60;;
56911;SDS011;42800;53.928;27.662;2023-08-12T00:45:14;12.38;;;7.25;;
56911;SDS011;42800;53.928;27.662;2023-08-12T00:47:40;21.70;;;7.60;;
56911;SDS011;42800;53.928;27.662;2023-08-12T00:50:07;11.48;;;7.22;;
56911;SDS011;42800;53.928;27.662;2023-08-12T00:52:37;10.30;;;7.15;;
56911;SDS011;42800;53.928;27.662;2023-08-12T00:55:05;10.05;;;6.93;;
56911;SDS011;42800;53.928;27.662;2023-08-12T00:57:31;10.68;;;6.43;;
56911;SDS011;42800;53.928;27.662;2023-08-12T00:59:57;10.02;;;6.78;;
56911;SDS011;42800;53.928;27.662;2023-08-12T01:02:25;11.30;;;8.18;;
56911;SDS011;42800;53.928;27.662;2023-08-12T01:04:51;10.52;;;7.03;;
56911;SDS011;42800;53.928;27.662;2023-08-12T01:07:18;14.02;;;7.25;;
56911;SDS011;42800;53.928;27.662;2023-08-12T01:09:43;13.23;;;8.00;;
56911;SDS011;42800;53.928;27.662;2023-08-12T01:12:11;12.70;;;8.00;;
56911;SDS011;42800;53.928;27.662;2023-08-12T01:14:39;12.45;;;7.55;;
56911;SDS011;42800;53.928;27.662;2023-08-12T01:17:21;8.52;;;6.45;;
56911;SDS011;42800;53.928;27.662;2023-08-12T01:19:48;13.05;;;6.90;;
56911;SDS011;42800;53.928;27.662;2023-08-12T01:22:15;8.63;;;6.75;;
56911;SDS011;42800;53.928;27.662;2023-08-12T01:24:44;10.40;;;7.60;;
56911;SDS011;42800;53.928;27.662;2023-08-12T01:27:11;9.63;;;7.20;;
56911;SDS011;42800;53.928;27.662;2023-08-12T01:29:38;10.90;;;6.68;;
56911;SDS011;42800;53.928;27.662;2023-08-12T01:32:07;12.70;;;11.57;;
56911;SDS011;42800;53.928;27.662;2023-08-12T01:34:39;9.75;;;6.45;;
56911;SDS011;42800;53.928;27.662;2023-08-12T01:37:10;19.92;;;17.85;;
56911;SDS011;42800;53.928;27.662;2023-08-12T01:39:38;8.57;;;7.43;;
56911;SDS011;42800;53.928;27.662;2023-08-12T01:42:07;8.23;;;6.53;;
56911;SDS011;42800;53.928;27.662;2023-08-12T01:44:33;6.40;;;5.70;;
56911;SDS011;42800;53.928;27.662;2023-08-12T01:46:59;13.57;;;6.57;;
56911;SDS011;42800;53.928;27.662;2023-08-12T01:49:25;12.10;;;6.60;;
56911;SDS011;42800;53.928;27.662;2023-08-12T01:51:51;6.68;;;5.97;;
56911;SDS011;42800;53.928;27.662;2023-08-12T01:54:17;12.90;;;6.63;;
56911;SDS011;42800;53.928;27.662;2023-08-12T01:56:43;10.68;;;6.97;;
56911;SDS011;42800;53.928;27.662;2023-08-12T01:59:10;6.80;;;6.10;;
56911;SDS011;42800;53.928;27.662;2023-08-12T02:01:35;10.10;;;6.30;;
56911;SDS011;42800;53.928;27.662;2023-08-12T02:04:01;17.80;;;9.60;;
56911;SDS011;42800;53.928;27.662;2023-08-12T02:06:27;8.05;;;5.85;;
56911;SDS011;42800;53.928;27.662;2023-08-12T02:08:53;9.80;;;6.72;;
56911;SDS011;42800;53.928;27.662;2023-08-12T02:11:19;7.78;;;5.88;;
56911;SDS011;42800;53.928;27.662;2023-08-12T02:13:45;7.97;;;6.05;;
56911;SDS011;42800;53.928;27.662;2023-08-12T02:16:12;10.50;;;6.43;;
56911;SDS011;42800;53.928;27.662;2023-08-12T02:18:38;6.53;;;5.72;;
56911;SDS011;42800;53.928;27.662;2023-08-12T02:21:03;10.13;;;9.13;;
56911;SDS011;42800;53.928;27.662;2023-08-12T02:23:29;9.90;;;9.00;;
56911;SDS011;42800;53.928;27.662;2023-08-12T02:25:55;7.35;;;6.10;;
56911;SDS011;42800;53.928;27.662;2023-08-12T02:28:21;8.82;;;6.22;;
56911;SDS011;42800;53.928;27.662;2023-08-12T02:30:47;10.63;;;5.68;;
56911;SDS011;42800;53.928;27.662;2023-08-12T02:33:14;10.20;;;6.32;;
56911;SDS011;42800;53.928;27.662;2023-08-12T02:35:39;12.07;;;6.43;;
56911;SDS011;42800;53.928;27.662;2023-08-12T02:38:05;9.68;;;5.82;;
56911;SDS011;42800;53.928;27.662;2023-08-12T02:40:31;7.60;;;6.00;;
56911;SDS011;42800;53.928;27.662;2023-08-12T02:42:57;8.73;;;5.80;;
56911;SDS011;42800;53.928;27.662;2023-08-12T02:45:23;8.13;;;5.80;;
56911;SDS011;42800;53.928;27.662;2023-08-12T02:47:49;12.10;;;6.38;;
56911;SDS011;42800;53.928;27.662;2023-08-12T02:50:16;8.77;;;6.25;;
56911;SDS011;42800;53.928;27.662;2023-08-12T02:52:42;7.20;;;5.80;;
56911;SDS011;42800;53.928;27.662;2023-08-12T02:55:08;9.50;;;5.82;;
56911;SDS011;42800;53.928;27.662;2023-08-12T02:57:34;10.07;;;6.30;;
56911;SDS011;42800;53.928;27.662;2023-08-12T03:00:00;6.43;;;5.53;;
56911;SDS011;42800;53.928;27.662;2023-08-12T03:02:26;10.80;;;5.90;;
56911;SDS011;42800;53.928;27.662;2023-08-12T03:04:52;7.13;;;5.43;;
56911;SDS011;42800;53.928;27.662;2023-08-12T03:07:19;7.93;;;7.03;;
56911;SDS011;42800;53.928;27.662;2023-08-12T03:09:45;9.05;;;5.60;;
56911;SDS011;42800;53.928;27.662;2023-08-12T03:12:11;10.88;;;5.60;;
56911;SDS011;42800;53.928;27.662;2023-08-12T03:14:37;6.57;;;5.18;;
56911;SDS011;42800;53.928;27.662;2023-08-12T03:17:03;10.05;;;5.05;;
56911;SDS011;42800;53.928;27.662;2023-08-12T03:19:29;7.00;;;4.70;;
56911;SDS011;42800;53.928;27.662;2023-08-12T03:21:55;9.63;;;6.30;;
56911;SDS011;42800;53.928;27.662;2023-08-12T03:24:21;7.20;;;4.63;;
56911;SDS011;42800;53.928;27.662;2023-08-12T03:26:47;7.07;;;5.10;;
56911;SDS011;42800;53.928;27.662;2023-08-12T03:29:13;6.65;;;4.55;;
56911;SDS011;42800;53.928;27.662;2023-08-12T03:31:39;9.05;;;4.85;;
56911;SDS011;42800;53.928;27.662;2023-08-12T03:34:05;8.23;;;4.32;;
56911;SDS011;42800;53.928;27.662;2023-08-12T03:36:31;4.47;;;4.05;;
56911;SDS011;42800;53.928;27.662;2023-08-12T03:38:57;5.82;;;4.13;;
56911;SDS011;42800;53.928;27.662;2023-08-12T03:41:24;4.22;;;3.78;;
56911;SDS011;42800;53.928;27.662;2023-08-12T03:43:50;5.53;;;3.83;;
56911;SDS011;42800;53.928;27.662;2023-08-12T03:46:16;4.05;;;3.40;;
56911;SDS011;42800;53.928;27.662;2023-08-12T03:48:42;7.40;;;3.70;;
56911;SDS011;42800;53.928;27.662;2023-08-12T03:51:08;5.47;;;2.80;;
56911;SDS011;42800;53.928;27.662;2023-08-12T03:53:34;7.30;;;3.40;;
56911;SDS011;42800;53.928;27.662;2023-08-12T03:56:00;3.92;;;3.60;;
56911;SDS011;42800;53.928;27.662;2023-08-12T03:58:27;4.63;;;3.58;;
56911;SDS011;42800;53.928;27.662;2023-08-12T04:00:52;3.90;;;3.00;;
56911;SDS011;42800;53.928;27.662;2023-08-12T04:03:18;5.15;;;3.15;;
56911;SDS011;42800;53.928;27.662;2023-08-12T04:05:48;7.45;;;3.35;;
56911;SDS011;42800;53.928;27.662;2023-08-12T04:08:15;4.70;;;4.00;;
56911;SDS011;42800;53.928;27.662;2023-08-12T04:10:43;4.65;;;3.38;;
56911;SDS011;42800;53.928;27.662;2023-08-12T04:13:10;3.78;;;3.15;;
56911;SDS011;42800;53.928;27.662;2023-08-12T04:15:36;2.95;;;2.70;;
56911;SDS011;42800;53.928;27.662;2023-08-12T04:18:02;4.90;;;3.60;;
56911;SDS011;42800;53.928;27.662;2023-08-12T04:20:29;4.43;;;3.20;;
56911;SDS011;42800;53.928;27.662;2023-08-12T04:22:55;2.78;;;2.58;;
56911;SDS011;42800;53.928;27.662;2023-08-12T04:25:21;3.10;;;2.80;;
56911;SDS011;42800;53.928;27.662;2023-08-12T04:27:47;3.25;;;2.75;;
56911;SDS011;42800;53.928;27.662;2023-08-12T04:30:14;3.40;;;2.80;;
56911;SDS011;42800;53.928;27.662;2023-08-12T04:32:41;2.83;;;2.63;;
56911;SDS011;42800;53.928;27.662;2023-08-12T04:35:08;7.28;;;2.90;;
56911;SDS011;42800;53.928;27.662;2023-08-12T04:37:34;2.83;;;2.63;;
56911;SDS011;42800;53.928;27.662;2023-08-12T04:40:00;3.17;;;2.83;;
56911;SDS011;42800;53.928;27.662;2023-08-12T04:42:28;3.47;;;2.78;;
56911;SDS011;42800;53.928;27.662;2023-08-12T04:44:54;4.55;;;3.15;;
56911;SDS011;42800;53.928;27.662;2023-08-12T04:47:20;3.35;;;2.90;;
56911;SDS011;42800;53.928;27.662;2023-08-12T04:49:47;5.63;;;3.15;;
56911;SDS011;42800;53.928;27.662;2023-08-12T04:52:13;3.13;;;2.83;;
56911;SDS011;42800;53.928;27.662;2023-08-12T04:54:39;3.90;;;3.03;;
56911;SDS011;42800;53.928;27.662;2023-08-12T04:57:05;3.90;;;2.95;;
56911;SDS011;42800;53.928;27.662;2023-08-12T04:59:31;6.57;;;2.58;;
56911;SDS011;42800;53.928;27.662;2023-08-12T05:01:57;5.35;;;2.35;;
56911;SDS011;42800;53.928;27.662;2023-08-12T05:04:23;3.53;;;2.38;;
56911;SDS011;42800;53.928;27.662;2023-08-12T05:06:49;5.70;;;2.05;;
56911;SDS011;42800;53.928;27.662;2023-08-12T05:09:15;3.65;;;2.70;;
56911;SDS011;42800;53.928;27.662;2023-08-12T05:11:41;6.93;;;2.00;;
56911;SDS011;42800;53.928;27.662;2023-08-12T05:14:07;2.80;;;2.55;;
56911;SDS011;42800;53.928;27.662;2023-08-12T05:16:33;2.85;;;2.58;;
56911;SDS011;42800;53.928;27.662;2023-08-12T05:18:59;4.47;;;2.58;;
56911;SDS011;42800;53.928;27.662;2023-08-12T05:21:25;4.07;;;2.60;;
56911;SDS011;42800;53.928;27.662;2023-08-12T05:23:52;2.65;;;2.15;;
56911;SDS011;42800;53.928;27.662;2023-08-12T05:26:18;5.43;;;2.22;;
56911;SDS011;42800;53.928;27.662;2023-08-12T05:28:45;3.53;;;2.20;;
56911;SDS011;42800;53.928;27.662;2023-08-12T05:31:11;3.10;;;2.10;;
56911;SDS011;42800;53.928;27.662;2023-08-12T05:33:37;2.83;;;2.50;;
56911;SDS011;42800;53.928;27.662;2023-08-12T05:36:03;4.65;;;2.50;;
56911;SDS011;42800;53.928;27.662;2023-08-12T05:38:29;5.47;;;2.35;;
56911;SDS011;42800;53.928;27.662;2023-08-12T05:40:55;5.28;;;2.00;;
56911;SDS011;42800;53.928;27.662;2023-08-12T05:43:22;6.35;;;2.70;;
56911;SDS011;42800;53.928;27.662;2023-08-12T05:45:48;5.03;;;2.10;;
56911;SDS011;42800;53.928;27.662;2023-08-12T05:48:14;3.83;;;2.00;;
56911;SDS011;42800;53.928;27.662;2023-08-12T05:50:40;7.63;;;2.55;;
56911;SDS011;42800;53.928;27.662;2023-08-12T05:53:06;2.13;;;1.92;;
56911;SDS011;42800;53.928;27.662;2023-08-12T05:55:32;3.33;;;2.17;;
56911;SDS011;42800;53.928;27.662;2023-08-12T05:58:00;2.65;;;2.15;;
56911;SDS011;42800;53.928;27.662;2023-08-12T06:00:26;6.07;;;2.30;;
56911;SDS011;42800;53.928;27.662;2023-08-12T06:02:52;4.97;;;2.30;;
56911;SDS011;42800;53.928;27.662;2023-08-12T06:05:18;6.10;;;2.30;;
56911;SDS011;42800;53.928;27.662;2023-08-12T06:07:44;4.80;;;2.00;;
56911;SDS011;42800;53.928;27.662;2023-08-12T06:10:09;2.20;;;1.60;;
56911;SDS011;42800;53.928;27.662;2023-08-12T06:12:35;3.78;;;1.70;;
56911;SDS011;42800;53.928;27.662;2023-08-12T06:15:02;2.08;;;1.90;;
56911;SDS011;42800;53.928;27.662;2023-08-12T06:17:29;2.53;;;1.75;;
56911;SDS011;42800;53.928;27.662;2023-08-12T06:19:55;3.30;;;2.30;;
56911;SDS011;42800;53.928;27.662;2023-08-12T06:22:21;3.58;;;1.98;;
56911;SDS011;42800;53.928;27.662;2023-08-12T06:24:47;2.92;;;2.25;;
56911;SDS011;42800;53.928;27.662;2023-08-12T06:27:13;4.05;;;2.20;;
56911;SDS011;42800;53.928;27.662;2023-08-12T06:29:39;4.53;;;1.88;;
56911;SDS011;42800;53.928;27.662;2023-08-12T06:32:05;3.63;;;2.33;;
56911;SDS011;42800;53.928;27.662;2023-08-12T06:34:31;5.45;;;2.10;;
56911;SDS011;42800;53.928;27.662;2023-08-12T06:36:57;4.28;;;1.90;;
56911;SDS011;42800;53.928;27.662;2023-08-12T06:39:23;2.92;;;1.77;;
56911;SDS011;42800;53.928;27.662;2023-08-12T06:41:49;3.13;;;2.20;;
56911;SDS011;42800;53.928;27.662;2023-08-12T06:44:17;1.67;;;1.58;;
56911;SDS011;42800;53.928;27.662;2023-08-12T06:46:43;2.85;;;1.60;;
56911;SDS011;42800;53.928;27.662;2023-08-12T06:49:09;4.72;;;2.00;;
56911;SDS011;42800;53.928;27.662;2023-08-12T06:51:35;2.30;;;1.90;;
56911;SDS011;42800;53.928;27.662;2023-08-12T06:54:01;3.33;;;2.10;;
56911;SDS011;42800;53.928;27.662;2023-08-12T06:56:27;3.72;;;1.98;;
56911;SDS011;42800;53.928;27.662;2023-08-12T06:58:53;5.53;;;2.20;;
56911;SDS011;42800;53.928;27.662;2023-08-12T07:01:19;2.20;;;1.92;;
56911;SDS011;42800;53.928;27.662;2023-08-12T07:03:45;2.03;;;1.90;;
56911;SDS011;42800;53.928;27.662;2023-08-12T07:06:12;4.30;;;2.10;;
56911;SDS011;42800;53.928;27.662;2023-08-12T07:08:37;4.88;;;1.85;;
56911;SDS011;42800;53.928;27.662;2023-08-12T07:11:03;2.13;;;2.00;;
56911;SDS011;42800;53.928;27.662;2023-08-12T07:13:29;2.90;;;1.90;;
56911;SDS011;42800;53.928;27.662;2023-08-12T07:15:55;2.63;;;1.80;;
56911;SDS011;42800;53.928;27.662;2023-08-12T07:18:21;5.60;;;1.80;;
56911;SDS011;42800;53.928;27.662;2023-08-12T07:20:48;4.57;;;2.28;;
56911;SDS011;42800;53.928;27.662;2023-08-12T07:23:14;9.60;;;1.65;;
56911;SDS011;42800;53.928;27.662;2023-08-12T07:25:40;4.53;;;1.80;;
56911;SDS011;42800;53.928;27.662;2023-08-12T07:28:06;3.35;;;2.13;;
56911;SDS011;42800;53.928;27.662;2023-08-12T07:30:33;3.90;;;1.70;;
56911;SDS011;42800;53.928;27.662;2023-08-12T07:33:00;2.67;;;1.92;;
56911;SDS011;42800;53.928;27.662;2023-08-12T07:35:26;3.83;;;2.03;;
56911;SDS011;42800;53.928;27.662;2023-08-12T07:37:51;4.30;;;1.75;;
56911;SDS011;42800;53.928;27.662;2023-08-12T07:40:18;2.00;;;1.90;;
56911;SDS011;42800;53.928;27.662;2023-08-12T07:42:44;9.77;;;2.33;;
56911;SDS011;42800;53.928;27.662;2023-08-12T07:45:10;4.15;;;1.92;;
56911;SDS011;42800;53.928;27.662;2023-08-12T07:47:36;4.60;;;1.98;;
56911;SDS011;42800;53.928;27.662;2023-08-12T07:50:02;2.53;;;2.03;;
56911;SDS011;42800;53.928;27.662;2023-08-12T07:52:28;2.60;;;1.80;;
56911;SDS011;42800;53.928;27.662;2023-08-12T07:54:54;2.65;;;1.73;;
56911;SDS011;42800;53.928;27.662;2023-08-12T07:57:21;6.45;;;1.85;;
56911;SDS011;42800;53.928;27.662;2023-08-12T07:59:49;3.60;;;1.65;;
56911;SDS011;42800;53.928;27.662;2023-08-12T08:02:15;2.50;;;1.92;;
56911;SDS011;42800;53.928;27.662;2023-08-12T08:04:41;4.53;;;2.10;;
56911;SDS011;42800;53.928;27.662;2023-08-12T08:07:07;2.15;;;1.95;;
56911;SDS011;42800;53.928;27.662;2023-08-12T08:09:33;1.92;;;1.63;;
56911;SDS011;42800;53.928;27.662;2023-08-12T08:11:59;2.03;;;1.83;;
56911;SDS011;42800;53.928;27.662;2023-08-12T08:14:26;2.17;;;1.95;;
56911;SDS011;42800;53.928;27.662;2023-08-12T08:16:52;4.72;;;2.03;;
56911;SDS011;42800;53.928;27.662;2023-08-12T08:19:18;7.43;;;2.20;;
56911;SDS011;42800;53.928;27.662;2023-08-12T08:21:44;2.15;;;1.95;;
56911;SDS011;42800;53.928;27.662;2023-08-12T08:24:10;2.05;;;1.67;;
56911;SDS011;42800;53.928;27.662;2023-08-12T08:26:37;4.35;;;2.05;;
56911;SDS011;42800;53.928;27.662;2023-08-12T08:29:03;4.50;;;1.95;;
56911;SDS011;42800;53.928;27.662;2023-08-12T08:31:30;5.32;;;2.10;;
56911;SDS011;42800;53.928;27.662;2023-08-12T08:33:56;4.18;;;2.10;;
56911;SDS011;42800;53.928;27.662;2023-08-12T08:36:22;3.13;;;1.75;;
56911;SDS011;42800;53.928;27.662;2023-08-12T08:38:48;4.70;;;2.00;;
56911;SDS011;42800;53.928;27.662;2023-08-12T08:41:14;2.20;;;1.77;;
56911;SDS011;42800;53.928;27.662;2023-08-12T08:43:42;4.22;;;2.10;;
56911;SDS011;42800;53.928;27.662;2023-08-12T08:46:09;3.25;;;2.13;;
56911;SDS011;42800;53.928;27.662;2023-08-12T08:48:40;3.03;;;2.20;;
56911;SDS011;42800;53.928;27.662;2023-08-12T08:51:06;4.22;;;1.83;;
56911;SDS011;42800;53.928;27.662;2023-08-12T08:53:34;6.15;;;2.13;;
56911;SDS011;42800;53.928;27.662;2023-08-12T08:56:02;3.50;;;1.92;;
56911;SDS011;42800;53.928;27.662;2023-08-12T08:58:30;7.55;;;2.20;;
56911;SDS011;42800;53.928;27.662;2023-08-12T09:00:56;4.88;;;2.03;;
56911;SDS011;42800;53.928;27.662;2023-08-12T09:03:22;6.10;;;2.05;;
56911;SDS011;42800;53.928;27.662;2023-08-12T09:05:50;2.22;;;1.90;;
56911;SDS011;42800;53.928;27.662;2023-08-12T09:08:17;1.85;;;1.75;;
56911;SDS011;42800;53.928;27.662;2023-08-12T09:10:43;1.90;;;1.77;;
56911;SDS011;42800;53.928;27.662;2023-08-12T09:13:11;3.65;;;2.20;;
56911;SDS011;42800;53.928;27.662;2023-08-12T09:15:38;3.13;;;2.17;;
56911;SDS011;42800;53.928;27.662;2023-08-12T09:18:04;3.60;;;1.98;;
56911;SDS011;42800;53.928;27.662;2023-08-12T09:20:31;2.40;;;1.80;;
56911;SDS011;42800;53.928;27.662;2023-08-12T09:22:58;5.35;;;1.95;;
56911;SDS011;42800;53.928;27.662;2023-08-12T09:25:24;3.45;;;2.17;;
56911;SDS011;42800;53.928;27.662;2023-08-12T09:27:53;2.35;;;2.00;;
56911;SDS011;42800;53.928;27.662;2023-08-12T09:30:20;4.28;;;2.10;;
56911;SDS011;42800;53.928;27.662;2023-08-12T09:32:48;4.55;;;2.00;;
56911;SDS011;42800;53.928;27.662;2023-08-12T09:35:24;5.82;;;2.50;;
56911;SDS011;42800;53.928;27.662;2023-08-12T09:38:01;5.32;;;1.98;;
56911;SDS011;42800;53.928;27.662;2023-08-12T09:40:28;2.80;;;1.88;;
56911;SDS011;42800;53.928;27.662;2023-08-12T09:42:56;2.47;;;1.80;;
56911;SDS011;42800;53.928;27.662;2023-08-12T09:45:23;3.88;;;2.28;;
56911;SDS011;42800;53.928;27.662;2023-08-12T09:47:49;1.80;;;1.70;;
56911;SDS011;42800;53.928;27.662;2023-08-12T09:50:15;4.72;;;1.92;;
56911;SDS011;42800;53.928;27.662;2023-08-12T09:52:41;5.45;;;2.13;;
56911;SDS011;42800;53.928;27.662;2023-08-12T09:55:08;7.32;;;2.25;;
56911;SDS011;42800;53.928;27.662;2023-08-12T09:57:37;3.75;;;2.10;;
56911;SDS011;42800;53.928;27.662;2023-08-12T10:00:08;3.58;;;1.73;;
56911;SDS011;42800;53.928;27.662;2023-08-12T10:02:38;2.55;;;1.90;;
56911;SDS011;42800;53.928;27.662;2023-08-12T10:05:05;1.60;;;1.50;;
56911;SDS011;42800;53.928;27.662;2023-08-12T10:07:35;3.17;;;2.25;;
56911;SDS011;42800;53.928;27.662;2023-08-12T10:10:01;3.75;;;1.80;;
56911;SDS011;42800;53.928;27.662;2023-08-12T10:12:31;2.45;;;1.83;;
56911;SDS011;42800;53.928;27.662;2023-08-12T10:14:58;2.13;;;1.80;;
56911;SDS011;42800;53.928;27.662;2023-08-12T10:17:25;4.82;;;2.15;;
56911;SDS011;42800;53.928;27.662;2023-08-12T10:19:53;2.33;;;1.80;;
56911;SDS011;42800;53.928;27.662;2023-08-12T10:22:20;4.68;;;1.98;;
56911;SDS011;42800;53.928;27.662;2023-08-12T10:24:46;4.72;;;2.00;;
56911;SDS011;42800;53.928;27.662;2023-08-12T10:27:14;6.28;;;2.20;;
56911;SDS011;42800;53.928;27.662;2023-08-12T10:29:43;3.10;;;1.77;;
56911;SDS011;42800;53.928;27.662;2023-08-12T10:32:09;2.67;;;2.30;;
56911;SDS011;42800;53.928;27.662;2023-08-12T10:34:35;3.17;;;2.13;;
56911;SDS011;42800;53.928;27.662;2023-08-12T10:37:02;2.20;;;2.10;;
56911;SDS011;42800;53.928;27.662;2023-08-12T10:39:29;10.65;;;1.90;;
56911;SDS011;42800;53.928;27.662;2023-08-12T10:41:57;2.13;;;1.63;;
56911;SDS011;42800;53.928;27.662;2023-08-12T10:44:25;6.38;;;2.20;;
56911;SDS011;42800;53.928;27.662;2023-08-12T10:46:53;2.90;;;2.00;;
56911;SDS011;42800;53.928;27.662;2023-08-12T10:49:20;5.13;;;2.05;;
56911;SDS011;42800;53.928;27.662;2023-08-12T10:51:46;2.78;;;2.17;;
56911;SDS011;42800;53.928;27.662;2023-08-12T10:54:13;5.50;;;1.85;;
56911;SDS011;42800;53.928;27.662;2023-08-12T10:59:51;4.05;;;2.03;;
56911;SDS011;42800;53.928;27.662;2023-08-12T11:02:19;4.07;;;2.08;;
56911;SDS011;42800;53.928;27.662;2023-08-12T11:04:48;3.13;;;2.30;;
56911;SDS011;42800;53.928;27.662;2023-08-12T11:07:15;3.78;;;2.10;;
56911;SDS011;42800;53.928;27.662;2023-08-12T11:09:41;2.35;;;1.65;;
56911;SDS011;42800;53.928;27.662;2023-08-12T11:12:08;4.65;;;1.90;;
56911;SDS011;42800;53.928;27.662;2023-08-12T11:14:37;7.53;;;2.25;;
56911;SDS011;42800;53.928;27.662;2023-08-12T11:17:13;5.18;;;2.05;;
56911;SDS011;42800;53.928;27.662;2023-08-12T11:19:40;3.22;;;1.60;;
56911;SDS011;42800;53.928;27.662;2023-08-12T11:22:06;6.72;;;2.13;;
56911;SDS011;42800;53.928;27.662;2023-08-12T11:24:32;7.10;;;2.40;;
56911;SDS011;42800;53.928;27.662;2023-08-12T11:27:01;4.60;;;2.33;;
56911;SDS011;42800;53.928;27.662;2023-08-12T11:29:27;2.25;;;2.00;;
56911;SDS011;42800;53.928;27.662;2023-08-12T11:31:53;1.70;;;1.60;;
56911;SDS011;42800;53.928;27.662;2023-08-12T11:34:19;2.47;;;1.77;;
56911;SDS011;42800;53.928;27.662;2023-08-12T11:36:45;5.72;;;2.45;;
56911;SDS011;42800;53.928;27.662;2023-08-12T11:39:11;1.52;;;1.42;;
56911;SDS011;42800;53.928;27.662;2023-08-12T11:41:37;2.03;;;1.65;;
56911;SDS011;42800;53.928;27.662;2023-08-12T11:44:03;5.80;;;1.77;;
56911;SDS011;42800;53.928;27.662;2023-08-12T11:46:32;1.88;;;1.65;;
56911;SDS011;42800;53.928;27.662;2023-08-12T11:48:58;5.55;;;2.30;;
56911;SDS011;42800;53.928;27.662;2023-08-12T11:51:24;4.00;;;1.88;;
56911;SDS011;42800;53.928;27.662;2023-08-12T11:53:50;3.05;;;1.60;;
56911;SDS011;42800;53.928;27.662;2023-08-12T11:56:16;6.60;;;1.77;;
56911;SDS011;42800;53.928;27.662;2023-08-12T11:58:48;2.67;;;2.08;;
56911;SDS011;42800;53.928;27.662;2023-08-12T12:01:14;2.67;;;1.50;;
56911;SDS011;42800;53.928;27.662;2023-08-12T12:03:40;3.10;;;1.75;;
56911;SDS011;42800;53.928;27.662;2023-08-12T12:06:06;9.57;;;1.83;;
56911;SDS011;42800;53.928;27.662;2023-08-12T12:08:32;3.55;;;2.03;;
56911;SDS011;42800;53.928;27.662;2023-08-12T12:11:03;3.85;;;1.80;;
56911;SDS011;42800;53.928;27.662;2023-08-12T12:13:30;2.33;;;1.60;;
56911;SDS011;42800;53.928;27.662;2023-08-12T12:15:57;1.42;;;1.17;;
56911;SDS011;42800;53.928;27.662;2023-08-12T12:18:24;2.38;;;1.90;;
56911;SDS011;42800;53.928;27.662;2023-08-12T12:20:54;1.88;;;1.50;;
56911;SDS011;42800;53.928;27.662;2023-08-12T12:23:21;12.05;;;2.33;;
56911;SDS011;42800;53.928;27.662;2023-08-12T12:25:47;3.97;;;1.77;;
56911;SDS011;42800;53.928;27.662;2023-08-12T12:28:13;3.22;;;1.90;;
56911;SDS011;42800;53.928;27.662;2023-08-12T12:30:39;2.38;;;2.17;;
56911;SDS011;42800;53.928;27.662;2023-08-12T12:33:05;3.35;;;1.80;;
56911;SDS011;42800;53.928;27.662;2023-08-12T12:35:32;9.68;;;1.58;;
56911;SDS011;42800;53.928;27.662;2023-08-12T12:37:58;2.10;;;1.67;;
56911;SDS011;42800;53.928;27.662;2023-08-12T12:40:24;2.45;;;1.77;;
56911;SDS011;42800;53.928;27.662;2023-08-12T12:42:49;4.45;;;2.00;;
56911;SDS011;42800;53.928;27.662;2023-08-12T12:45:16;8.32;;;1.92;;
56911;SDS011;42800;53.928;27.662;2023-08-12T12:47:42;3.47;;;2.13;;
56911;SDS011;42800;53.928;27.662;2023-08-12T12:50:08;3.53;;;1.80;;
56911;SDS011;42800;53.928;27.662;2023-08-12T12:52:34;2.40;;;1.88;;
56911;SDS011;42800;53.928;27.662;2023-08-12T12:55:00;3.03;;;1.75;;
56911;SDS011;42800;53.928;27.662;2023-08-12T12:57:29;4.80;;;1.63;;
56911;SDS011;42800;53.928;27.662;2023-08-12T12:59:55;3.78;;;1.80;;
56911;SDS011;42800;53.928;27.662;2023-08-12T13:02:21;9.90;;;1.50;;
56911;SDS011;42800;53.928;27.662;2023-08-12T13:04:47;1.40;;;1.30;;
56911;SDS011;42800;53.928;27.662;2023-08-12T13:07:14;5.25;;;1.77;;
56911;SDS011;42800;53.928;27.662;2023-08-12T13:09:40;2.40;;;1.80;;
56911;SDS011;42800;53.928;27.662;2023-08-12T13:12:06;3.63;;;1.55;;
56911;SDS011;42800;53.928;27.662;2023-08-12T13:14:32;4.68;;;1.88;;
56911;SDS011;42800;53.928;27.662;2023-08-12T13:16:58;2.80;;;1.95;;
56911;SDS011;42800;53.928;27.662;2023-08-12T13:19:25;12.98;;;2.25;;
56911;SDS011;42800;53.928;27.662;2023-08-12T13:21:51;4.05;;;1.92;;
56911;SDS011;42800;53.928;27.662;2023-08-12T13:24:16;3.38;;;2.00;;
56911;SDS011;42800;53.928;27.662;2023-08-12T13:26:42;4.63;;;1.42;;
56911;SDS011;42800;53.928;27.662;2023-08-12T13:29:08;3.83;;;2.00;;
56911;SDS011;42800;53.928;27.662;2023-08-12T13:31:34;3.35;;;2.20;;
56911;SDS011;42800;53.928;27.662;2023-08-12T13:34:00;3.35;;;1.98;;
56911;SDS011;42800;53.928;27.662;2023-08-12T13:36:27;5.20;;;2.28;;
56911;SDS011;42800;53.928;27.662;2023-08-12T13:38:52;6.82;;;2.10;;
56911;SDS011;42800;53.928;27.662;2023-08-12T13:41:18;4.90;;;2.05;;
56911;SDS011;42800;53.928;27.662;2023-08-12T13:43:44;7.55;;;2.10;;
56911;SDS011;42800;53.928;27.662;2023-08-12T13:46:10;4.70;;;2.22;;
56911;SDS011;42800;53.928;27.662;2023-08-12T13:48:36;10.43;;;1.45;;
56911;SDS011;42800;53.928;27.662;2023-08-12T13:51:02;5.57;;;1.80;;
56911;SDS011;42800;53.928;27.662;2023-08-12T13:53:29;4.50;;;1.73;;
56911;SDS011;42800;53.928;27.662;2023-08-12T13:55:55;4.45;;;1.80;;
56911;SDS011;42800;53.928;27.662;2023-08-12T13:58:21;2.42;;;1.88;;
56911;SDS011;42800;53.928;27.662;2023-08-12T14:00:47;1.55;;;1.23;;
56911;SDS011;42800;53.928;27.662;2023-08-12T14:03:13;2.65;;;1.35;;
56911;SDS011;42800;53.928;27.662;2023-08-12T14:05:39;3.67;;;1.70;;
56911;SDS011;42800;53.928;27.662;2023-08-12T14:08:05;4.07;;;2.00;;
56911;SDS011;42800;53.928;27.662;2023-08-12T14:10:32;2.63;;;1.70;;
56911;SDS011;42800;53.928;27.662;2023-08-12T14:12:57;3.90;;;1.88;;
56911;SDS011;42800;53.928;27.662;2023-08-12T14:15:23;4.55;;;1.38;;
56911;SDS011;42800;53.928;27.662;2023-08-12T14:17:49;4.35;;;1.60;;
56911;SDS011;42800;53.928;27.662;2023-08-12T14:20:15;1.92;;;1.48;;
56911;SDS011;42800;53.928;27.662;2023-08-12T14:22:42;4.30;;;1.60;;
56911;SDS011;42800;53.928;27.662;2023-08-12T14:25:09;2.60;;;1.83;;
56911;SDS011;42800;53.928;27.662;2023-08-12T14:27:36;1.95;;;1.42;;
56911;SDS011;42800;53.928;27.662;2023-08-12T14:30:02;4.15;;;1.80;;
56911;SDS011;42800;53.928;27.662;2023-08-12T14:32:29;4.95;;;1.50;;